Time;durP1;ratioP1;P1;durP2;ratioP2;P2;SDS_P1;SDS_P2;PMS_P1;PMS_P2;Temp;Humidity;BMP_temperature;BMP_pressure;BME280_temperature;BME280_humidity;BME280_pressure;Samples;Min_cycle;Max_cycle;Signal;HPM_P1;HPM_P2
2021/09/06 00:00:36;;;;;;;8.38;5.30;;;10.00;76.20;;;;;;5014674;28;20033;-69
2021/09/06 00:03:02;;;;;;;10.77;5.88;;;10.00;76.40;;;;;;5014527;28;20033;-69
2021/09/06 00:05:27;;;;;;;10.52;6.40;;;9.90;76.40;;;;;;5014577;28;20033;-72
2021/09/06 00:07:53;;;;;;;10.40;5.80;;;9.90;76.50;;;;;;5014605;28;20125;-69
2021/09/06 00:10:44;;;;;;;7.40;5.07;;;9.90;76.60;;;;;;5014745;28;20468;-69
2021/09/06 00:13:13;;;;;;;7.05;5.40;;;9.90;77.00;;;;;;5014598;28;20022;-69
2021/09/06 00:15:40;;;;;;;9.93;5.70;;;9.80;76.90;;;;;;5014621;28;20025;-68
2021/09/06 00:18:07;;;;;;;12.98;5.55;;;9.80;77.10;;;;;;5014432;28;20037;-69
2021/09/06 00:20:35;;;;;;;7.15;5.00;;;9.80;77.20;;;;;;5014323;28;20080;-69
2021/09/06 00:23:00;;;;;;;7.25;5.38;;;9.70;77.30;;;;;;5014473;28;20532;-68
2021/09/06 00:25:26;;;;;;;6.97;4.72;;;9.70;77.40;;;;;;5014425;28;20141;-70
2021/09/06 00:27:52;;;;;;;10.68;5.55;;;9.70;78.20;;;;;;5014393;28;20057;-70
2021/09/06 00:30:18;;;;;;;10.75;5.55;;;9.70;77.70;;;;;;5014214;28;20108;-69
2021/09/06 00:32:44;;;;;;;9.07;5.40;;;9.70;77.80;;;;;;5014296;28;20372;-70
2021/09/06 00:35:10;;;;;;;8.35;5.72;;;9.70;77.90;;;;;;5014204;28;20026;-70
2021/09/06 00:37:36;;;;;;;8.07;5.40;;;9.60;78.00;;;;;;5014023;28;20033;-70
2021/09/06 00:40:02;;;;;;;10.43;5.57;;;9.60;78.20;;;;;;5014105;28;20033;-70
2021/09/06 00:42:28;;;;;;;10.35;5.78;;;9.60;78.40;;;;;;5013903;28;20506;-69
2021/09/06 00:44:54;;;;;;;8.30;5.35;;;9.60;78.50;;;;;;4996695;28;20036;-68
2021/09/06 00:47:19;;;;;;;7.32;5.53;;;9.50;78.70;;;;;;5013960;28;20028;-68
2021/09/06 00:49:45;;;;;;;12.75;9.07;;;9.50;78.90;;;;;;5013893;28;20022;-69
2021/09/06 00:52:11;;;;;;;18.83;14.27;;;9.50;79.10;;;;;;5013798;28;20068;-69
2021/09/06 00:54:37;;;;;;;19.48;13.40;;;9.50;79.20;;;;;;5013814;28;20072;-69
2021/09/06 00:57:03;;;;;;;14.38;10.68;;;9.50;79.20;;;;;;5013732;28;20030;-68
2021/09/06 00:59:29;;;;;;;13.05;10.10;;;9.50;79.40;;;;;;5013698;28;20380;-69
2021/09/06 01:01:54;;;;;;;10.20;6.95;;;9.50;79.60;;;;;;5013502;28;20030;-68
2021/09/06 01:04:20;;;;;;;10.20;5.43;;;9.50;79.70;;;;;;5013588;28;20022;-68
2021/09/06 01:06:46;;;;;;;10.25;5.90;;;9.40;79.70;;;;;;5013766;28;20049;-69
2021/09/06 01:09:11;;;;;;;9.90;6.50;;;9.40;79.90;;;;;;5013593;28;20030;-69
2021/09/06 01:11:37;;;;;;;8.80;5.22;;;9.40;79.90;;;;;;5013506;28;20026;-69
2021/09/06 01:14:03;;;;;;;12.73;8.40;;;9.40;80.10;;;;;;5013396;28;20479;-69
2021/09/06 01:16:29;;;;;;;14.65;9.93;;;9.40;80.10;;;;;;5013520;28;20034;-69
2021/09/06 01:18:54;;;;;;;17.10;12.45;;;9.40;80.20;;;;;;5013455;28;20026;-69
2021/09/06 01:21:20;;;;;;;17.98;9.30;;;9.40;80.40;;;;;;5013268;28;20029;-69
2021/09/06 01:23:46;;;;;;;11.40;7.85;;;9.40;80.40;;;;;;5013586;28;20096;-69
2021/09/06 01:26:11;;;;;;;10.13;8.07;;;9.40;80.40;;;;;;5013368;28;20037;-69
2021/09/06 01:28:37;;;;;;;11.35;7.55;;;9.40;80.40;;;;;;4995113;28;20099;-68
2021/09/06 01:31:04;;;;;;;8.32;6.53;;;9.30;80.50;;;;;;5013014;28;20026;-69
2021/09/06 01:33:29;;;;;;;11.07;6.75;;;9.30;80.60;;;;;;5013120;28;20022;-68
2021/09/06 01:35:55;;;;;;;11.10;6.45;;;9.20;80.70;;;;;;5013005;28;20101;-69
2021/09/06 01:38:21;;;;;;;9.23;6.80;;;9.20;80.80;;;;;;5013013;28;20080;-70
2021/09/06 01:40:47;;;;;;;10.13;6.32;;;9.20;80.90;;;;;;5012755;28;20033;-69
2021/09/06 01:43:13;;;;;;;7.50;5.80;;;9.20;81.10;;;;;;5012765;28;20056;-69
2021/09/06 01:45:38;;;;;;;10.82;6.10;;;9.10;81.10;;;;;;5012946;28;20030;-69
2021/09/06 01:48:05;;;;;;;9.07;6.22;;;9.10;81.20;;;;;;5012720;28;20023;-70
2021/09/06 01:50:30;;;;;;;10.57;5.50;;;9.10;81.30;;;;;;5012804;28;20033;-69
2021/09/06 01:52:56;;;;;;;8.65;5.85;;;9.00;81.40;;;;;;5012818;28;20388;-69
2021/09/06 01:55:22;;;;;;;8.38;5.82;;;9.00;81.50;;;;;;5012727;28;20048;-69
2021/09/06 01:57:48;;;;;;;10.73;6.45;;;9.00;81.50;;;;;;4995185;28;20025;-69
2021/09/06 02:00:14;;;;;;;10.27;6.63;;;9.00;81.70;;;;;;5012710;28;20037;-68
2021/09/06 02:02:40;;;;;;;9.25;6.53;;;9.00;81.70;;;;;;5012788;28;20021;-69
2021/09/06 02:05:06;;;;;;;9.88;6.85;;;9.00;81.90;;;;;;5012494;28;20101;-69
2021/09/06 02:07:32;;;;;;;8.07;6.38;;;8.90;81.90;;;;;;5012580;28;20416;-69
2021/09/06 02:09:57;;;;;;;8.68;5.95;;;8.90;82.10;;;;;;5012725;28;20022;-69
2021/09/06 02:12:23;;;;;;;9.73;6.80;;;8.90;82.10;;;;;;5012489;28;20061;-69
2021/09/06 02:14:49;;;;;;;12.40;7.35;;;8.80;82.20;;;;;;5012232;28;20034;-69
2021/09/06 02:17:14;;;;;;;12.10;8.00;;;8.80;82.40;;;;;;5012377;28;20018;-69
2021/09/06 02:19:40;;;;;;;11.95;8.68;;;8.80;82.60;;;;;;5012353;28;20037;-69
2021/09/06 02:22:06;;;;;;;11.95;8.77;;;8.80;82.80;;;;;;5012333;28;20075;-69
2021/09/06 02:24:32;;;;;;;13.60;8.77;;;8.80;82.80;;;;;;5012267;28;20030;-69
2021/09/06 02:26:58;;;;;;;9.63;8.15;;;8.80;82.90;;;;;;5012306;28;20033;-70
2021/09/06 02:29:23;;;;;;;12.90;7.88;;;8.70;82.90;;;;;;5012276;28;20129;-69
2021/09/06 02:31:49;;;;;;;11.25;8.23;;;8.70;83.00;;;;;;5012214;28;20464;-69
2021/09/06 02:34:15;;;;;;;12.65;8.05;;;8.70;82.90;;;;;;5012168;28;20033;-68
2021/09/06 02:36:40;;;;;;;8.85;6.15;;;8.70;83.00;;;;;;5012298;28;20029;-69
2021/09/06 02:39:06;;;;;;;10.30;6.47;;;8.70;83.00;;;;;;5012018;28;20365;-69
2021/09/06 02:41:32;;;;;;;8.50;6.45;;;8.70;83.00;;;;;;5011306;28;20026;-69
2021/09/06 02:43:58;;;;;;;10.35;6.60;;;8.70;83.00;;;;;;5011995;28;20101;-69
2021/09/06 02:46:23;;;;;;;8.30;6.03;;;8.60;82.90;;;;;;5011942;28;20030;-69
2021/09/06 02:48:49;;;;;;;10.75;6.75;;;8.60;82.90;;;;;;4994649;28;20030;-69
2021/09/06 02:51:15;;;;;;;14.10;6.72;;;8.60;82.80;;;;;;5012460;28;20026;-69
2021/09/06 02:53:40;;;;;;;10.40;6.47;;;8.60;82.90;;;;;;5012047;28;20030;-69
2021/09/06 02:56:06;;;;;;;9.20;6.85;;;8.60;82.90;;;;;;5011939;28;20029;-69
2021/09/06 02:58:32;;;;;;;9.57;6.30;;;8.50;83.00;;;;;;5011892;28;20362;-70
2021/09/06 03:00:58;;;;;;;9.02;6.10;;;8.50;83.10;;;;;;5011705;28;20036;-69
2021/09/06 03:03:23;;;;;;;10.15;6.40;;;8.50;83.10;;;;;;4994420;28;20030;-71
2021/09/06 03:05:49;;;;;;;7.88;5.75;;;8.50;83.10;;;;;;5011804;28;20057;-69
2021/09/06 03:08:15;;;;;;;8.02;5.80;;;8.40;83.10;;;;;;5011630;28;20021;-69
2021/09/06 03:10:41;;;;;;;9.02;5.38;;;8.40;83.10;;;;;;5011623;28;20022;-68
2021/09/06 03:13:07;;;;;;;8.07;5.35;;;8.40;83.20;;;;;;5011784;28;20365;-69
2021/09/06 03:15:32;;;;;;;10.15;6.55;;;8.40;83.20;;;;;;5011793;28;20064;-70
2021/09/06 03:17:59;;;;;;;36.80;24.52;;;8.40;83.30;;;;;;4993764;28;20100;-69
2021/09/06 03:20:24;;;;;;;14.70;8.27;;;8.40;83.40;;;;;;5011463;28;20057;-70
2021/09/06 03:22:50;;;;;;;11.02;7.82;;;8.40;83.70;;;;;;5011526;28;20448;-70
2021/09/06 03:25:16;;;;;;;11.25;6.78;;;8.70;84.60;;;;;;5011617;28;20022;-68
2021/09/06 03:27:41;;;;;;;10.85;7.57;;;9.10;84.10;;;;;;5011836;28;20104;-69
2021/09/06 03:30:08;;;;;;;11.43;7.22;;;9.60;83.10;;;;;;5011684;28;20030;-69
2021/09/06 03:32:34;;;;;;;10.55;6.47;;;10.20;81.60;;;;;;5011767;28;20444;-70
2021/09/06 03:35:00;;;;;;;11.82;6.13;;;10.90;79.80;;;;;;5011837;28;20793;-68
2021/09/06 03:37:26;;;;;;;15.75;7.60;;;11.60;77.70;;;;;;5011469;28;20033;-69
2021/09/06 03:39:51;;;;;;;8.55;6.10;;;12.40;75.70;;;;;;5011252;28;20018;-69
2021/09/06 03:42:17;;;;;;;18.02;7.10;;;13.20;73.40;;;;;;5011161;28;20109;-69
2021/09/06 03:44:43;;;;;;;11.63;6.90;;;14.00;71.20;;;;;;5011570;28;20045;-69
2021/09/06 03:47:09;;;;;;;13.30;7.10;;;14.80;68.90;;;;;;5011316;28;20468;-69
2021/09/06 03:49:36;;;;;;;16.75;7.03;;;15.60;66.70;;;;;;5011287;28;20480;-69
2021/09/06 03:52:02;;;;;;;9.80;6.07;;;16.50;64.50;;;;;;4995582;28;20036;-69
2021/09/06 03:54:28;;;;;;;9.32;5.50;;;17.20;62.40;;;;;;5014527;28;20117;-69
2021/09/06 03:56:53;;;;;;;7.85;5.80;;;18.00;61.00;;;;;;5014710;28;20033;-69
2021/09/06 03:59:19;;;;;;;7.15;4.88;;;18.80;58.60;;;;;;5014610;28;20472;-69
2021/09/06 04:01:46;;;;;;;11.70;5.45;;;19.50;56.70;;;;;;5014479;28;20026;-69
2021/09/06 04:04:11;;;;;;;9.68;5.00;;;20.30;55.00;;;;;;5014468;28;20477;-70
2021/09/06 04:06:37;;;;;;;6.22;4.80;;;21.00;53.30;;;;;;5014328;28;20061;-69
2021/09/06 04:09:03;;;;;;;8.63;5.10;;;21.70;52.40;;;;;;5014559;28;20416;-71
2021/09/06 04:11:29;;;;;;;5.68;4.35;;;22.40;50.30;;;;;;4996792;28;20116;-70
2021/09/06 04:13:54;;;;;;;8.52;4.78;;;23.20;48.90;;;;;;5014334;28;20030;-69
2021/09/06 04:16:20;;;;;;;6.90;4.72;;;23.80;47.60;;;;;;5014184;28;20025;-69
2021/09/06 04:18:46;;;;;;;7.10;4.55;;;24.50;46.40;;;;;;4996848;28;20034;-70
2021/09/06 04:21:11;;;;;;;6.50;5.00;;;25.20;45.30;;;;;;5014246;28;20725;-70
2021/09/06 04:23:42;;;;;;;7.30;4.57;;;25.80;44.30;;;;;;5013985;28;20113;-71
2021/09/06 04:26:08;;;;;;;8.05;4.78;;;26.30;43.30;;;;;;5013610;28;20022;-71
2021/09/06 04:28:34;;;;;;;7.78;5.57;;;26.70;42.60;;;;;;5014244;28;20476;-70
2021/09/06 04:30:59;;;;;;;11.10;4.85;;;27.30;42.00;;;;;;5013964;28;20072;-70
2021/09/06 04:33:25;;;;;;;13.00;4.45;;;27.80;41.20;;;;;;5013365;28;20100;-71
2021/09/06 04:35:52;;;;;;;7.03;4.40;;;28.40;40.60;;;;;;5013665;28;20384;-70
2021/09/06 04:38:18;;;;;;;11.88;7.32;;;28.90;39.90;;;;;;5013523;28;20014;-71
2021/09/06 04:40:44;;;;;;;11.15;6.50;;;29.40;39.20;;;;;;5013678;28;20034;-71
2021/09/06 04:43:09;;;;;;;5.70;4.63;;;29.50;38.50;;;;;;5013407;28;20053;-71
2021/09/06 04:45:35;;;;;;;7.68;4.88;;;29.40;38.30;;;;;;5013452;28;20022;-70
2021/09/06 04:48:01;;;;;;;4.70;4.07;;;29.30;38.10;;;;;;5013471;28;20026;-70
2021/09/06 04:50:27;;;;;;;8.77;4.28;;;28.90;38.00;;;;;;5012670;28;20479;-71
2021/09/06 04:52:55;;;;;;;10.35;4.75;;;28.80;38.30;;;;;;5013146;28;20105;-71
2021/09/06 04:55:21;;;;;;;11.40;4.72;;;28.80;38.40;;;;;;5013139;28;20026;-71
2021/09/06 04:57:47;;;;;;;7.47;4.60;;;29.20;38.50;;;;;;5013096;28;20030;-71
2021/09/06 05:00:13;;;;;;;10.45;7.65;;;29.30;38.10;;;;;;5012750;28;20028;-71
2021/09/06 05:02:39;;;;;;;11.63;5.88;;;29.20;37.80;;;;;;5011849;28;20066;-72
2021/09/06 05:05:05;;;;;;;8.50;4.68;;;29.10;38.10;;;;;;5012131;28;20061;-71
2021/09/06 05:07:31;;;;;;;9.10;5.18;;;29.50;38.00;;;;;;5012512;28;20032;-71
2021/09/06 05:09:57;;;;;;;8.23;4.15;;;30.00;37.60;;;;;;5012224;28;20018;-70
2021/09/06 05:12:22;;;;;;;9.23;4.57;;;30.30;37.20;;;;;;5012726;28;20026;-71
2021/09/06 05:14:48;;;;;;;13.43;5.18;;;30.30;37.10;;;;;;5012719;28;20081;-73
2021/09/06 05:17:14;;;;;;;9.80;4.80;;;30.00;36.90;;;;;;5012683;28;20417;-70
2021/09/06 05:19:39;;;;;;;12.25;4.75;;;29.90;37.10;;;;;;5012704;28;20464;-71
2021/09/06 05:22:05;;;;;;;14.45;5.40;;;29.90;37.10;;;;;;5008990;28;20133;-71
2021/09/06 05:24:31;;;;;;;6.72;3.85;;;29.80;37.00;;;;;;5001093;28;20049;-72
2021/09/06 05:26:57;;;;;;;18.75;4.63;;;29.80;37.10;;;;;;5002049;28;20361;-71
2021/09/06 05:29:22;;;;;;;8.15;4.40;;;29.80;37.20;;;;;;5000554;28;20022;-71
2021/09/06 05:31:48;;;;;;;10.10;4.80;;;29.80;37.30;;;;;;5001053;28;20530;-70
2021/09/06 05:34:14;;;;;;;10.18;5.20;;;29.70;37.20;;;;;;5002022;28;20030;-71
2021/09/06 05:36:39;;;;;;;8.88;4.75;;;29.70;37.10;;;;;;5000278;28;20026;-71
2021/09/06 05:39:05;;;;;;;11.48;4.70;;;29.70;37.10;;;;;;5001316;28;20093;-70
2021/09/06 05:41:31;;;;;;;9.20;4.88;;;29.60;37.00;;;;;;5000693;28;20090;-70
2021/09/06 05:43:59;;;;;;;7.97;4.15;;;29.80;37.40;;;;;;4999344;28;20033;-72
2021/09/06 05:46:25;;;;;;;9.57;5.38;;;30.20;37.30;;;;;;5001503;28;20543;-72
2021/09/06 05:48:51;;;;;;;6.65;4.68;;;30.60;36.90;;;;;;4982216;28;20021;-71
2021/09/06 05:51:17;;;;;;;9.73;4.43;;;31.10;36.60;;;;;;5002332;28;20049;-72
2021/09/06 05:53:43;;;;;;;8.35;4.50;;;31.00;36.00;;;;;;5000533;28;20014;-72
2021/09/06 05:56:11;;;;;;;9.13;4.95;;;30.50;36.70;;;;;;4983767;28;20033;-71
2021/09/06 05:58:37;;;;;;;11.90;6.25;;;29.90;36.50;;;;;;5001935;28;20084;-72
2021/09/06 06:01:03;;;;;;;9.30;5.00;;;29.80;36.90;;;;;;5000436;28;20102;-72
2021/09/06 06:03:29;;;;;;;9.60;4.22;;;29.90;37.00;;;;;;5001345;28;20041;-72
2021/09/06 06:05:55;;;;;;;8.48;4.55;;;30.50;36.80;;;;;;4984333;28;20022;-71
2021/09/06 06:08:20;;;;;;;9.77;3.47;;;30.80;36.20;;;;;;4999951;28;20018;-72
2021/09/06 06:10:47;;;;;;;8.35;4.80;;;30.70;35.30;;;;;;5000082;28;20034;-71
2021/09/06 06:13:13;;;;;;;8.82;3.70;;;30.30;35.40;;;;;;5000720;28;20881;-70
2021/09/06 06:15:39;;;;;;;13.77;4.60;;;29.80;35.50;;;;;;5002323;28;20877;-70
2021/09/06 06:18:08;;;;;;;9.50;4.65;;;29.10;35.60;;;;;;4983434;28;20049;-71
2021/09/06 06:20:34;;;;;;;6.00;3.00;;;28.30;36.00;;;;;;5001076;28;20440;-73
2021/09/06 06:23:06;;;;;;;7.72;3.95;;;27.70;36.60;;;;;;5002642;28;20659;-76
2021/09/06 06:25:33;;;;;;;8.02;3.00;;;27.10;37.20;;;;;;5001535;28;20104;-72
2021/09/06 06:27:59;;;;;;;8.70;3.78;;;26.90;37.70;;;;;;4999872;28;20049;-70
2021/09/06 06:30:26;;;;;;;18.10;5.40;;;26.90;38.20;;;;;;4984175;28;20439;-71
2021/09/06 06:32:52;;;;;;;6.88;3.38;;;26.70;38.10;;;;;;4983972;28;20014;-71
2021/09/06 06:35:21;;;;;;;5.82;2.78;;;26.50;38.30;;;;;;4999836;28;20376;-71
2021/09/06 06:37:47;;;;;;;5.20;2.67;;;26.30;38.30;;;;;;5001175;28;20021;-71
2021/09/06 06:40:14;;;;;;;5.20;2.75;;;26.20;38.80;;;;;;5001450;28;20444;-71
2021/09/06 06:42:43;;;;;;;6.50;2.38;;;26.20;38.90;;;;;;4999262;28;20046;-69
2021/09/06 06:45:10;;;;;;;5.30;2.60;;;26.30;38.70;;;;;;5000488;28;20109;-72
2021/09/06 06:47:36;;;;;;;5.75;2.80;;;26.60;38.70;;;;;;5000032;28;20020;-73
2021/09/06 06:50:02;;;;;;;4.50;2.78;;;27.30;38.70;;;;;;4983885;28;20021;-73
2021/09/06 06:52:28;;;;;;;4.07;2.63;;;28.10;38.50;;;;;;4980357;28;20052;-73
2021/09/06 06:54:54;;;;;;;3.50;2.38;;;28.90;37.70;;;;;;4992060;28;20116;-74
2021/09/06 06:57:20;;;;;;;2.70;2.50;;;29.60;36.70;;;;;;4974542;28;20023;-74
2021/09/06 06:59:46;;;;;;;8.00;2.30;;;29.90;36.00;;;;;;4992045;28;20041;-73
2021/09/06 07:02:12;;;;;;;4.25;2.75;;;30.00;35.40;;;;;;4979954;28;20048;-74
2021/09/06 07:04:38;;;;;;;9.02;2.42;;;29.90;35.20;;;;;;5011368;28;20101;-74
2021/09/06 07:07:04;;;;;;;4.00;1.88;;;29.90;35.20;;;;;;5011085;28;20109;-74
2021/09/06 07:09:32;;;;;;;2.60;2.38;;;30.00;35.00;;;;;;4993154;28;20491;-72
2021/09/06 07:12:00;;;;;;;5.07;3.80;;;29.90;34.50;;;;;;4995479;28;20031;-74
2021/09/06 07:14:26;;;;;;;4.88;2.67;;;29.80;34.40;;;;;;4991208;28;20026;-73
2021/09/06 07:17:02;;;;;;;9.40;2.45;;;29.90;34.50;;;;;;4991581;28;20050;-73
2021/09/06 07:19:28;;;;;;;29.73;7.38;;;29.90;34.00;;;;;;4973743;28;20089;-72
2021/09/06 07:21:54;;;;;;;6.90;3.30;;;30.00;34.30;;;;;;4973476;28;20030;-73
2021/09/06 07:24:20;;;;;;;7.28;5.07;;;30.20;34.30;;;;;;4973600;28;20018;-74
2021/09/06 07:26:47;;;;;;;20.88;4.93;;;30.30;34.20;;;;;;4994476;28;20077;-74
2021/09/06 07:29:15;;;;;;;6.05;2.88;;;30.60;33.80;;;;;;5014425;28;20014;-74
2021/09/06 07:31:41;;;;;;;8.48;3.80;;;30.80;33.20;;;;;;5014421;28;20095;-72
2021/09/06 07:34:08;;;;;;;5.25;2.40;;;31.00;33.20;;;;;;4996948;28;20116;-73
2021/09/06 07:36:35;;;;;;;4.53;2.70;;;31.00;32.00;;;;;;5014631;28;20034;-73
2021/09/06 07:39:17;;;;;;;3.28;1.70;;;30.70;31.70;;;;;;5011846;28;20033;-72
2021/09/06 07:41:45;;;;;;;2.47;2.05;;;30.50;31.50;;;;;;4976442;28;20042;-72
2021/09/06 07:44:11;;;;;;;3.83;2.10;;;30.20;31.50;;;;;;4994229;28;20037;-74
2021/09/06 07:46:37;;;;;;;5.22;2.25;;;30.10;31.80;;;;;;4994148;28;20023;-72
2021/09/06 07:49:03;;;;;;;14.82;3.42;;;30.20;31.40;;;;;;4993545;28;20041;-72
2021/09/06 07:51:29;;;;;;;4.07;3.00;;;30.30;31.20;;;;;;4993918;28;20038;-73
2021/09/06 07:53:55;;;;;;;6.97;2.92;;;30.20;31.30;;;;;;4976426;28;20034;-71
2021/09/06 07:56:21;;;;;;;9.15;3.78;;;30.00;31.40;;;;;;5000326;28;20057;-71
2021/09/06 07:58:46;;;;;;;3.85;2.25;;;29.80;31.40;;;;;;5010207;28;20097;-72
2021/09/06 08:01:12;;;;;;;6.68;2.78;;;29.60;31.70;;;;;;4993085;28;20030;-71
2021/09/06 08:03:38;;;;;;;5.50;2.08;;;29.30;32.00;;;;;;4993672;28;20033;-71
2021/09/06 08:06:04;;;;;;;5.13;2.10;;;28.80;31.80;;;;;;4993869;28;20041;-72
2021/09/06 08:08:35;;;;;;;35.03;6.32;;;28.60;31.70;;;;;;4993672;28;20037;-73
2021/09/06 08:11:02;;;;;;;5.15;1.70;;;28.20;31.50;;;;;;4976602;28;20121;-71
2021/09/06 08:13:28;;;;;;;3.40;2.40;;;27.80;31.60;;;;;;5003905;28;20038;-72
2021/09/06 08:15:54;;;;;;;6.10;2.03;;;27.40;32.10;;;;;;5013691;28;20033;-76
2021/09/06 08:18:19;;;;;;;10.27;3.67;;;27.00;32.80;;;;;;4996380;28;20503;-77
2021/09/06 08:20:45;;;;;;;2.65;1.73;;;26.70;33.00;;;;;;4994986;28;20030;-69
2021/09/06 08:23:11;;;;;;;4.63;2.03;;;26.40;33.40;;;;;;4993431;28;20034;-71
2021/09/06 08:25:37;;;;;;;4.93;1.80;;;26.10;33.70;;;;;;4993766;28;20022;-74
2021/09/06 08:28:03;;;;;;;7.78;2.70;;;25.80;33.80;;;;;;4993969;28;20022;-75
2021/09/06 08:30:32;;;;;;;2.40;2.05;;;25.50;34.00;;;;;;4994285;28;20781;-75
2021/09/06 08:32:58;;;;;;;3.35;1.98;;;25.10;34.20;;;;;;4993964;28;20026;-74
2021/09/06 08:35:24;;;;;;;7.03;2.13;;;24.80;34.50;;;;;;4993929;28;20026;-75
2021/09/06 08:37:50;;;;;;;4.43;1.90;;;24.40;34.80;;;;;;4979369;28;20042;-75
2021/09/06 08:40:16;;;;;;;3.20;1.20;;;24.30;35.10;;;;;;4992886;28;20034;-74
2021/09/06 08:42:42;;;;;;;6.07;2.08;;;24.30;35.20;;;;;;4993205;28;20038;-75
2021/09/06 08:45:11;;;;;;;4.07;1.55;;;24.40;35.20;;;;;;4993874;28;20102;-74
2021/09/06 08:47:37;;;;;;;2.33;1.90;;;24.50;35.20;;;;;;4993965;28;20100;-74
2021/09/06 08:50:06;;;;;;;6.40;2.42;;;24.60;35.50;;;;;;4994117;28;20026;-73
2021/09/06 08:52:32;;;;;;;9.32;2.40;;;24.80;35.50;;;;;;4975543;28;20038;-73
2021/09/06 08:54:57;;;;;;;6.03;1.48;;;25.00;35.30;;;;;;4993608;28;20030;-74
2021/09/06 08:57:23;;;;;;;5.25;1.80;;;25.00;35.10;;;;;;4993198;28;20049;-74
2021/09/06 08:59:57;;;;;;;4.40;2.13;;;24.90;35.00;;;;;;4993095;28;20066;-76
2021/09/06 09:02:23;;;;;;;29.23;3.63;;;24.80;34.80;;;;;;4993116;28;20473;-75
2021/09/06 09:05:00;;;;;;;12.02;3.13;;;24.70;35.10;;;;;;4992936;28;20370;-74
2021/09/06 09:07:29;;;;;;;3.22;2.17;;;24.80;35.70;;;;;;4992711;28;20113;-73
2021/09/06 09:09:55;;;;;;;4.13;2.88;;;25.00;35.60;;;;;;4993200;28;20034;-76
2021/09/06 09:12:21;;;;;;;7.20;2.25;;;25.00;35.70;;;;;;4994425;28;20034;-74
2021/09/06 09:14:52;;;;;;;6.95;3.15;;;25.00;36.00;;;;;;4993716;28;20033;-74
2021/09/06 09:17:18;;;;;;;4.03;2.00;;;25.00;35.90;;;;;;4993440;28;20038;-75
2021/09/06 09:19:45;;;;;;;5.15;2.03;;;25.00;36.00;;;;;;4993396;28;20023;-75
2021/09/06 09:22:15;;;;;;;7.05;2.50;;;25.00;35.90;;;;;;4993068;28;20022;-75
2021/09/06 09:24:41;;;;;;;5.70;2.05;;;25.00;35.50;;;;;;4994832;28;20089;-75
2021/09/06 09:27:09;;;;;;;4.13;2.35;;;24.90;35.50;;;;;;4993746;28;20026;-75
2021/09/06 09:29:35;;;;;;;4.00;1.85;;;24.70;35.40;;;;;;5012754;28;20026;-74
2021/09/06 09:32:07;;;;;;;5.63;3.25;;;24.50;35.50;;;;;;5012676;28;20477;-76
2021/09/06 09:34:40;;;;;;;5.65;3.72;;;24.40;36.00;;;;;;5006093;28;20600;-76
2021/09/06 09:37:08;;;;;;;13.60;8.48;;;24.30;36.10;;;;;;4992937;28;20085;-75
2021/09/06 09:39:34;;;;;;;3.60;2.30;;;24.30;36.40;;;;;;4992685;28;20168;-75
2021/09/06 09:42:09;;;;;;;6.65;2.58;;;24.30;36.60;;;;;;4992630;28;20046;-76
2021/09/06 09:44:53;;;;;;;8.35;3.75;;;24.20;36.50;;;;;;4992830;28;20022;-74
2021/09/06 09:47:20;;;;;;;3.75;2.40;;;24.20;37.00;;;;;;4992625;28;20434;-74
2021/09/06 09:49:48;;;;;;;5.88;3.05;;;24.20;37.20;;;;;;4992396;28;20404;-77
2021/09/06 09:52:15;;;;;;;6.20;3.00;;;24.10;36.90;;;;;;4992747;28;20101;-76
2021/09/06 09:54:41;;;;;;;3.28;2.00;;;24.10;37.00;;;;;;4993000;28;20026;-76
2021/09/06 09:57:07;;;;;;;5.43;2.08;;;24.00;36.50;;;;;;4992643;28;20115;-78
2021/09/06 09:59:33;;;;;;;3.15;2.50;;;23.90;36.30;;;;;;4975015;28;20084;-77
2021/09/06 10:02:17;;;;;;;3.67;2.60;;;24.00;36.60;;;;;;4992578;28;20484;-73
2021/09/06 10:05:05;;;;;;;3.65;2.20;;;24.10;36.40;;;;;;4993684;28;20034;-74
2021/09/06 10:07:33;;;;;;;5.00;2.28;;;24.30;36.30;;;;;;4993111;28;20025;-74
2021/09/06 10:10:12;;;;;;;3.08;2.20;;;24.40;35.80;;;;;;4992397;28;20477;-74
2021/09/06 10:12:38;;;;;;;3.40;3.08;;;24.60;35.70;;;;;;4992783;28;20022;-74
2021/09/06 10:15:06;;;;;;;3.00;2.50;;;24.60;35.80;;;;;;4992619;28;20034;-76
2021/09/06 10:17:43;;;;;;;3.60;2.70;;;24.60;36.10;;;;;;5002534;28;20062;-73
2021/09/06 10:20:12;;;;;;;5.00;3.20;;;24.70;35.90;;;;;;5010486;28;20030;-76
2021/09/06 10:22:42;;;;;;;7.50;2.83;;;24.60;36.10;;;;;;5011708;28;20052;-76
2021/09/06 10:25:11;;;;;;;3.97;2.63;;;24.60;36.10;;;;;;5011694;28;20037;-76
2021/09/06 10:27:49;;;;;;;3.63;2.20;;;24.60;36.20;;;;;;5012203;28;20018;-76
2021/09/06 10:30:15;;;;;;;10.13;2.95;;;24.50;35.50;;;;;;5011811;28;20468;-76
2021/09/06 10:32:48;;;;;;;8.00;2.45;;;24.40;35.60;;;;;;4994184;28;20392;-72
2021/09/06 10:35:22;;;;;;;8.52;2.80;;;24.20;35.80;;;;;;5011666;28;20496;-73
2021/09/06 10:38:01;;;;;;;2.35;2.10;;;24.00;36.40;;;;;;5011546;28;20030;-72
2021/09/06 10:40:32;;;;;;;5.05;2.38;;;23.80;36.80;;;;;;5011601;28;20030;-73
2021/09/06 10:42:58;;;;;;;6.45;2.70;;;23.60;36.60;;;;;;4994120;28;20377;-73
2021/09/06 10:45:25;;;;;;;8.60;6.22;;;23.40;36.50;;;;;;5011901;28;20033;-74
2021/09/06 10:48:00;;;;;;;4.57;2.58;;;23.20;36.80;;;;;;5011201;28;20025;-73
2021/09/06 10:50:27;;;;;;;3.17;2.10;;;23.20;37.10;;;;;;5010508;28;20021;-74
2021/09/06 10:52:53;;;;;;;7.05;2.30;;;23.20;37.60;;;;;;4993890;28;20450;-73
2021/09/06 10:55:20;;;;;;;4.40;2.20;;;23.30;37.90;;;;;;5011436;28;20133;-74
2021/09/06 10:57:47;;;;;;;6.57;3.17;;;23.50;37.70;;;;;;4993809;28;20834;-74
2021/09/06 11:00:18;;;;;;;5.07;3.15;;;23.70;37.50;;;;;;5011280;28;20022;-73
2021/09/06 11:02:44;;;;;;;3.92;2.92;;;23.90;37.20;;;;;;5014510;28;20026;-74
2021/09/06 11:05:21;;;;;;;2.67;1.80;;;24.10;37.00;;;;;;4997574;28;20203;-74
2021/09/06 11:07:49;;;;;;;4.65;2.28;;;24.20;36.30;;;;;;5014554;28;20022;-74
2021/09/06 11:10:19;;;;;;;4.85;2.40;;;24.20;36.00;;;;;;5015152;28;20036;-75
2021/09/06 11:13:11;;;;;;;2.33;1.98;;;24.20;36.50;;;;;;5014750;28;20416;-73
2021/09/06 11:15:37;;;;;;;5.53;1.95;;;24.10;35.60;;;;;;5011830;28;20041;-73
2021/09/06 11:18:05;;;;;;;5.10;2.95;;;24.10;35.60;;;;;;5015339;28;20029;-73
2021/09/06 11:20:33;;;;;;;3.17;2.40;;;24.00;35.60;;;;;;5015710;28;20141;-73
2021/09/06 11:23:03;;;;;;;3.45;2.10;;;23.90;35.30;;;;;;5015031;28;20085;-74
2021/09/06 11:25:31;;;;;;;8.18;3.00;;;23.80;35.40;;;;;;5015101;28;20458;-73
2021/09/06 11:28:15;;;;;;;3.90;2.60;;;23.70;35.90;;;;;;5014463;28;20025;-74
2021/09/06 11:30:45;;;;;;;5.53;1.80;;;23.50;36.30;;;;;;5014369;28;20049;-73
2021/09/06 11:33:13;;;;;;;3.17;2.38;;;23.40;35.90;;;;;;5014011;28;20037;-73
2021/09/06 11:35:47;;;;;;;3.13;2.00;;;23.40;35.80;;;;;;5013974;28;20225;-73
2021/09/06 11:38:14;;;;;;;6.97;2.10;;;23.30;36.20;;;;;;5014401;28;20358;-75
2021/09/06 11:40:42;;;;;;;4.20;1.92;;;23.20;36.40;;;;;;5014547;28;20038;-72
2021/09/06 11:43:09;;;;;;;2.83;1.95;;;23.20;36.30;;;;;;5014309;28;20579;-72
2021/09/06 11:45:36;;;;;;;8.02;3.60;;;23.10;36.00;;;;;;5013844;28;20092;-72
2021/09/06 11:48:07;;;;;;;6.45;2.80;;;23.00;36.10;;;;;;5014030;28;20022;-72
2021/09/06 11:50:39;;;;;;;3.25;2.50;;;23.10;36.50;;;;;;5013931;28;20388;-73
2021/09/06 11:53:11;;;;;;;5.15;2.72;;;23.10;36.50;;;;;;5014153;28;20026;-74
2021/09/06 11:55:37;;;;;;;5.05;3.20;;;23.00;36.60;;;;;;5014507;28;20076;-74
2021/09/06 11:58:11;;;;;;;7.47;3.08;;;22.90;36.80;;;;;;5014298;28;20026;-75
2021/09/06 12:00:38;;;;;;;4.25;2.15;;;22.80;36.30;;;;;;5014006;28;20087;-74
2021/09/06 12:03:04;;;;;;;3.88;2.72;;;22.80;36.40;;;;;;5013391;28;20018;-73
2021/09/06 12:05:50;;;;;;;6.13;2.38;;;22.70;36.40;;;;;;5013740;28;20422;-73
2021/09/06 12:08:17;;;;;;;5.75;2.58;;;22.70;36.20;;;;;;5013775;28;20630;-73
2021/09/06 12:10:45;;;;;;;6.68;2.80;;;22.60;36.60;;;;;;5013933;28;20101;-75
2021/09/06 12:13:17;;;;;;;5.95;2.17;;;22.60;36.80;;;;;;5013286;28;20029;-74
2021/09/06 12:15:57;;;;;;;5.30;2.40;;;22.70;37.10;;;;;;5013543;28;20364;-74
2021/09/06 12:18:37;;;;;;;3.03;2.30;;;22.60;37.20;;;;;;5011998;28;20061;-74
2021/09/06 12:21:07;;;;;;;4.72;2.30;;;22.60;36.90;;;;;;5013858;28;20026;-74
2021/09/06 12:23:38;;;;;;;2.70;2.40;;;22.50;36.90;;;;;;4996519;28;20049;-76
2021/09/06 12:26:05;;;;;;;5.90;2.90;;;22.40;37.30;;;;;;5014068;28;20040;-75
2021/09/06 12:28:32;;;;;;;5.78;3.22;;;22.30;37.50;;;;;;4996475;28;20026;-73
2021/09/06 12:31:04;;;;;;;8.50;3.40;;;22.10;37.90;;;;;;5012947;28;20440;-73
2021/09/06 12:33:31;;;;;;;5.47;3.15;;;21.90;38.10;;;;;;5013361;28;20088;-73
2021/09/06 12:36:00;;;;;;;11.82;3.60;;;21.70;38.20;;;;;;5009773;28;20037;-73
2021/09/06 12:38:26;;;;;;;3.75;2.78;;;21.60;38.60;;;;;;5013237;28;20033;-75
2021/09/06 12:40:52;;;;;;;5.35;3.20;;;21.40;38.70;;;;;;5014256;28;20022;-75
2021/09/06 12:43:18;;;;;;;6.55;2.65;;;21.30;39.00;;;;;;4996585;28;20073;-74
2021/09/06 12:45:44;;;;;;;5.28;2.92;;;21.30;39.00;;;;;;5014078;28;20457;-75